sensor_id;sensor_type;location;lat;lon;timestamp;P1;durP1;ratioP1;P2;durP2;ratioP2
40198;SDS011;25906;43.536;26.068;2024-02-16T00:00:19;6.28;;;3.63;;
40198;SDS011;25906;43.536;26.068;2024-02-16T00:03:04;5.93;;;3.15;;
40198;SDS011;25906;43.536;26.068;2024-02-16T00:05:50;5.22;;;3.03;;
40198;SDS011;25906;43.536;26.068;2024-02-16T00:08:36;6.18;;;3.60;;
40198;SDS011;25906;43.536;26.068;2024-02-16T00:11:23;6.93;;;3.22;;
40198;SDS011;25906;43.536;26.068;2024-02-16T00:14:10;7.65;;;3.67;;
40198;SDS011;25906;43.536;26.068;2024-02-16T00:16:55;6.85;;;3.78;;
40198;SDS011;25906;43.536;26.068;2024-02-16T00:19:41;8.45;;;3.72;;
40198;SDS011;25906;43.536;26.068;2024-02-16T00:22:27;6.80;;;3.58;;
40198;SDS011;25906;43.536;26.068;2024-02-16T00:25:13;5.75;;;3.63;;
40198;SDS011;25906;43.536;26.068;2024-02-16T00:27:59;5.32;;;3.80;;
40198;SDS011;25906;43.536;26.068;2024-02-16T00:30:44;5.93;;;3.60;;
40198;SDS011;25906;43.536;26.068;2024-02-16T00:33:32;7.78;;;3.53;;
40198;SDS011;25906;43.536;26.068;2024-02-16T00:36:18;6.60;;;3.70;;
40198;SDS011;25906;43.536;26.068;2024-02-16T00:39:03;9.32;;;3.58;;
40198;SDS011;25906;43.536;26.068;2024-02-16T00:41:49;6.93;;;3.28;;
40198;SDS011;25906;43.536;26.068;2024-02-16T00:44:34;7.78;;;4.50;;
40198;SDS011;25906;43.536;26.068;2024-02-16T00:47:20;7.72;;;3.92;;
40198;SDS011;25906;43.536;26.068;2024-02-16T00:50:05;6.60;;;3.33;;
40198;SDS011;25906;43.536;26.068;2024-02-16T00:52:53;8.77;;;4.07;;
40198;SDS011;25906;43.536;26.068;2024-02-16T00:55:39;5.90;;;3.50;;
40198;SDS011;25906;43.536;26.068;2024-02-16T00:58:26;9.20;;;4.25;;
40198;SDS011;25906;43.536;26.068;2024-02-16T01:01:12;7.95;;;4.00;;
40198;SDS011;25906;43.536;26.068;2024-02-16T01:03:58;8.25;;;3.67;;
40198;SDS011;25906;43.536;26.068;2024-02-16T01:06:44;9.25;;;3.92;;
40198;SDS011;25906;43.536;26.068;2024-02-16T01:09:29;5.60;;;3.40;;
40198;SDS011;25906;43.536;26.068;2024-02-16T01:12:15;6.88;;;3.83;;
40198;SDS011;25906;43.536;26.068;2024-02-16T01:15:03;7.75;;;4.13;;
40198;SDS011;25906;43.536;26.068;2024-02-16T01:17:50;5.45;;;3.58;;
40198;SDS011;25906;43.536;26.068;2024-02-16T01:20:35;7.20;;;4.35;;
40198;SDS011;25906;43.536;26.068;2024-02-16T01:23:21;6.65;;;3.70;;
40198;SDS011;25906;43.536;26.068;2024-02-16T01:26:07;7.20;;;4.60;;
40198;SDS011;25906;43.536;26.068;2024-02-16T01:28:52;11.27;;;4.43;;
40198;SDS011;25906;43.536;26.068;2024-02-16T01:31:37;9.80;;;4.20;;
40198;SDS011;25906;43.536;26.068;2024-02-16T01:34:23;7.85;;;4.25;;
40198;SDS011;25906;43.536;26.068;2024-02-16T01:37:08;8.25;;;4.20;;
40198;SDS011;25906;43.536;26.068;2024-02-16T01:39:55;7.47;;;4.00;;
40198;SDS011;25906;43.536;26.068;2024-02-16T01:42:41;8.77;;;4.22;;
40198;SDS011;25906;43.536;26.068;2024-02-16T01:45:26;7.90;;;3.92;;
40198;SDS011;25906;43.536;26.068;2024-02-16T01:48:13;8.68;;;4.47;;
40198;SDS011;25906;43.536;26.068;2024-02-16T01:50:59;7.88;;;4.40;;
40198;SDS011;25906;43.536;26.068;2024-02-16T01:53:47;8.65;;;4.10;;
40198;SDS011;25906;43.536;26.068;2024-02-16T01:56:32;6.95;;;3.92;;
40198;SDS011;25906;43.536;26.068;2024-02-16T01:59:18;6.88;;;4.20;;
40198;SDS011;25906;43.536;26.068;2024-02-16T02:04:49;7.80;;;3.75;;
40198;SDS011;25906;43.536;26.068;2024-02-16T02:07:35;9.32;;;4.55;;
40198;SDS011;25906;43.536;26.068;2024-02-16T02:10:20;9.30;;;4.30;;
40198;SDS011;25906;43.536;26.068;2024-02-16T02:13:05;8.98;;;4.90;;
40198;SDS011;25906;43.536;26.068;2024-02-16T02:15:51;7.20;;;4.25;;
40198;SDS011;25906;43.536;26.068;2024-02-16T02:18:39;9.13;;;4.82;;
40198;SDS011;25906;43.536;26.068;2024-02-16T02:21:25;7.97;;;4.88;;
40198;SDS011;25906;43.536;26.068;2024-02-16T02:24:10;13.88;;;4.70;;
40198;SDS011;25906;43.536;26.068;2024-02-16T02:26:56;9.80;;;4.18;;
40198;SDS011;25906;43.536;26.068;2024-02-16T02:29:42;9.30;;;4.93;;
40198;SDS011;25906;43.536;26.068;2024-02-16T02:32:29;9.05;;;4.85;;
40198;SDS011;25906;43.536;26.068;2024-02-16T02:35:15;8.13;;;4.95;;
40198;SDS011;25906;43.536;26.068;2024-02-16T02:38:01;7.20;;;4.68;;
40198;SDS011;25906;43.536;26.068;2024-02-16T02:43:33;7.70;;;4.47;;
40198;SDS011;25906;43.536;26.068;2024-02-16T02:46:18;11.18;;;4.93;;
40198;SDS011;25906;43.536;26.068;2024-02-16T02:49:03;9.68;;;4.53;;
40198;SDS011;25906;43.536;26.068;2024-02-16T02:51:49;11.77;;;5.32;;
40198;SDS011;25906;43.536;26.068;2024-02-16T02:54:34;10.57;;;4.78;;
40198;SDS011;25906;43.536;26.068;2024-02-16T02:57:20;9.95;;;5.30;;
40198;SDS011;25906;43.536;26.068;2024-02-16T03:00:06;7.93;;;4.75;;
40198;SDS011;25906;43.536;26.068;2024-02-16T03:02:58;9.77;;;4.85;;
40198;SDS011;25906;43.536;26.068;2024-02-16T03:05:44;10.65;;;4.63;;
40198;SDS011;25906;43.536;26.068;2024-02-16T03:08:29;9.60;;;5.25;;
40198;SDS011;25906;43.536;26.068;2024-02-16T03:11:15;11.45;;;5.50;;
40198;SDS011;25906;43.536;26.068;2024-02-16T03:14:00;9.18;;;5.43;;
40198;SDS011;25906;43.536;26.068;2024-02-16T03:16:46;11.85;;;5.13;;
40198;SDS011;25906;43.536;26.068;2024-02-16T03:19:31;10.15;;;5.28;;
40198;SDS011;25906;43.536;26.068;2024-02-16T03:22:17;10.25;;;5.10;;
40198;SDS011;25906;43.536;26.068;2024-02-16T03:25:03;10.73;;;5.22;;
40198;SDS011;25906;43.536;26.068;2024-02-16T03:27:50;11.98;;;5.07;;
40198;SDS011;25906;43.536;26.068;2024-02-16T03:30:35;11.73;;;5.45;;
40198;SDS011;25906;43.536;26.068;2024-02-16T03:33:21;14.50;;;6.57;;
40198;SDS011;25906;43.536;26.068;2024-02-16T03:36:06;11.65;;;5.80;;
40198;SDS011;25906;43.536;26.068;2024-02-16T03:38:52;10.93;;;5.43;;
40198;SDS011;25906;43.536;26.068;2024-02-16T03:41:37;9.65;;;5.57;;
40198;SDS011;25906;43.536;26.068;2024-02-16T03:44:22;9.90;;;5.60;;
40198;SDS011;25906;43.536;26.068;2024-02-16T03:47:08;11.70;;;5.20;;
40198;SDS011;25906;43.536;26.068;2024-02-16T03:52:39;11.00;;;5.20;;
40198;SDS011;25906;43.536;26.068;2024-02-16T03:55:25;10.68;;;5.30;;
40198;SDS011;25906;43.536;26.068;2024-02-16T03:58:11;13.35;;;5.72;;
40198;SDS011;25906;43.536;26.068;2024-02-16T04:00:57;11.23;;;6.07;;
40198;SDS011;25906;43.536;26.068;2024-02-16T04:03:43;12.02;;;5.82;;
40198;SDS011;25906;43.536;26.068;2024-02-16T04:06:29;13.93;;;5.90;;
40198;SDS011;25906;43.536;26.068;2024-02-16T04:09:14;9.82;;;5.68;;
40198;SDS011;25906;43.536;26.068;2024-02-16T04:12:01;9.10;;;4.72;;
40198;SDS011;25906;43.536;26.068;2024-02-16T04:14:46;7.85;;;4.80;;
40198;SDS011;25906;43.536;26.068;2024-02-16T04:17:32;11.32;;;5.68;;
40198;SDS011;25906;43.536;26.068;2024-02-16T04:20:18;9.52;;;5.95;;
40198;SDS011;25906;43.536;26.068;2024-02-16T04:23:04;12.38;;;5.80;;
40198;SDS011;25906;43.536;26.068;2024-02-16T04:25:49;11.88;;;6.25;;
40198;SDS011;25906;43.536;26.068;2024-02-16T04:28:35;15.80;;;6.88;;
40198;SDS011;25906;43.536;26.068;2024-02-16T04:31:21;12.52;;;5.55;;
40198;SDS011;25906;43.536;26.068;2024-02-16T04:34:06;11.52;;;6.18;;
40198;SDS011;25906;43.536;26.068;2024-02-16T04:36:52;10.73;;;5.72;;
40198;SDS011;25906;43.536;26.068;2024-02-16T04:39:37;13.10;;;6.03;;
40198;SDS011;25906;43.536;26.068;2024-02-16T04:42:23;11.50;;;5.55;;
40198;SDS011;25906;43.536;26.068;2024-02-16T04:45:12;12.45;;;5.28;;
40198;SDS011;25906;43.536;26.068;2024-02-16T04:48:02;13.05;;;6.30;;
40198;SDS011;25906;43.536;26.068;2024-02-16T04:50:48;15.85;;;6.40;;
40198;SDS011;25906;43.536;26.068;2024-02-16T04:53:33;12.68;;;5.85;;
40198;SDS011;25906;43.536;26.068;2024-02-16T04:56:19;10.55;;;5.30;;
40198;SDS011;25906;43.536;26.068;2024-02-16T04:59:05;10.82;;;6.05;;
40198;SDS011;25906;43.536;26.068;2024-02-16T05:01:51;13.25;;;6.97;;
40198;SDS011;25906;43.536;26.068;2024-02-16T05:04:36;16.10;;;6.70;;
40198;SDS011;25906;43.536;26.068;2024-02-16T05:10:10;13.95;;;5.53;;
40198;SDS011;25906;43.536;26.068;2024-02-16T05:12:56;14.80;;;6.22;;
40198;SDS011;25906;43.536;26.068;2024-02-16T05:15:43;11.77;;;5.82;;
40198;SDS011;25906;43.536;26.068;2024-02-16T05:18:28;13.88;;;6.43;;
40198;SDS011;25906;43.536;26.068;2024-02-16T05:21:14;11.43;;;5.68;;
40198;SDS011;25906;43.536;26.068;2024-02-16T05:23:59;12.50;;;6.60;;
40198;SDS011;25906;43.536;26.068;2024-02-16T05:26:45;15.50;;;6.75;;
40198;SDS011;25906;43.536;26.068;2024-02-16T05:29:30;13.75;;;6.72;;
40198;SDS011;25906;43.536;26.068;2024-02-16T05:32:16;13.88;;;6.47;;
40198;SDS011;25906;43.536;26.068;2024-02-16T05:35:04;13.20;;;6.32;;
40198;SDS011;25906;43.536;26.068;2024-02-16T05:37:56;12.40;;;5.82;;
40198;SDS011;25906;43.536;26.068;2024-02-16T05:40:42;16.13;;;7.07;;
40198;SDS011;25906;43.536;26.068;2024-02-16T05:43:38;15.70;;;6.85;;
40198;SDS011;25906;43.536;26.068;2024-02-16T05:49:09;15.40;;;6.15;;
40198;SDS011;25906;43.536;26.068;2024-02-16T05:51:55;11.27;;;5.93;;
40198;SDS011;25906;43.536;26.068;2024-02-16T05:55:02;11.70;;;6.03;;
40198;SDS011;25906;43.536;26.068;2024-02-16T05:57:49;12.73;;;6.45;;
40198;SDS011;25906;43.536;26.068;2024-02-16T06:00:34;14.27;;;6.88;;
40198;SDS011;25906;43.536;26.068;2024-02-16T06:03:20;13.77;;;7.32;;
40198;SDS011;25906;43.536;26.068;2024-02-16T06:06:06;14.02;;;7.07;;
40198;SDS011;25906;43.536;26.068;2024-02-16T06:08:53;14.02;;;6.47;;
40198;SDS011;25906;43.536;26.068;2024-02-16T06:11:38;13.52;;;6.88;;
40198;SDS011;25906;43.536;26.068;2024-02-16T06:14:24;14.05;;;7.43;;
40198;SDS011;25906;43.536;26.068;2024-02-16T06:17:10;12.60;;;6.43;;
40198;SDS011;25906;43.536;26.068;2024-02-16T06:19:56;16.02;;;7.13;;
40198;SDS011;25906;43.536;26.068;2024-02-16T06:22:41;14.40;;;7.15;;
40198;SDS011;25906;43.536;26.068;2024-02-16T06:25:27;14.70;;;7.43;;
40198;SDS011;25906;43.536;26.068;2024-02-16T06:28:12;15.95;;;7.45;;
40198;SDS011;25906;43.536;26.068;2024-02-16T06:30:58;11.10;;;6.03;;
40198;SDS011;25906;43.536;26.068;2024-02-16T06:33:43;12.57;;;7.30;;
40198;SDS011;25906;43.536;26.068;2024-02-16T06:36:28;16.05;;;7.40;;
40198;SDS011;25906;43.536;26.068;2024-02-16T06:39:15;15.55;;;7.32;;
40198;SDS011;25906;43.536;26.068;2024-02-16T06:42:05;18.08;;;8.40;;
40198;SDS011;25906;43.536;26.068;2024-02-16T06:44:50;41.33;;;15.98;;
40198;SDS011;25906;43.536;26.068;2024-02-16T06:47:36;14.82;;;7.57;;
40198;SDS011;25906;43.536;26.068;2024-02-16T06:50:21;16.90;;;7.80;;
40198;SDS011;25906;43.536;26.068;2024-02-16T06:53:06;14.52;;;7.18;;
40198;SDS011;25906;43.536;26.068;2024-02-16T06:55:52;14.90;;;7.38;;
40198;SDS011;25906;43.536;26.068;2024-02-16T06:58:37;14.00;;;7.28;;
40198;SDS011;25906;43.536;26.068;2024-02-16T07:01:23;15.73;;;8.20;;
40198;SDS011;25906;43.536;26.068;2024-02-16T07:04:08;12.70;;;7.30;;
40198;SDS011;25906;43.536;26.068;2024-02-16T07:06:54;14.15;;;7.90;;
40198;SDS011;25906;43.536;26.068;2024-02-16T07:09:39;14.75;;;7.28;;
40198;SDS011;25906;43.536;26.068;2024-02-16T07:12:25;14.20;;;7.28;;
40198;SDS011;25906;43.536;26.068;2024-02-16T07:15:10;13.20;;;6.78;;
40198;SDS011;25906;43.536;26.068;2024-02-16T07:17:57;14.75;;;7.32;;
40198;SDS011;25906;43.536;26.068;2024-02-16T07:20:43;15.15;;;7.57;;
40198;SDS011;25906;43.536;26.068;2024-02-16T07:23:28;13.30;;;7.28;;
40198;SDS011;25906;43.536;26.068;2024-02-16T07:29:02;15.25;;;7.18;;
40198;SDS011;25906;43.536;26.068;2024-02-16T07:31:48;14.02;;;7.55;;
40198;SDS011;25906;43.536;26.068;2024-02-16T07:34:36;13.82;;;7.28;;
40198;SDS011;25906;43.536;26.068;2024-02-16T07:37:22;14.88;;;7.00;;
40198;SDS011;25906;43.536;26.068;2024-02-16T07:40:08;14.65;;;7.00;;
40198;SDS011;25906;43.536;26.068;2024-02-16T07:42:54;14.68;;;7.35;;
40198;SDS011;25906;43.536;26.068;2024-02-16T07:45:39;12.43;;;7.05;;
40198;SDS011;25906;43.536;26.068;2024-02-16T07:48:25;14.52;;;7.03;;
40198;SDS011;25906;43.536;26.068;2024-02-16T07:51:10;28.38;;;14.88;;
40198;SDS011;25906;43.536;26.068;2024-02-16T07:53:56;14.30;;;7.47;;
40198;SDS011;25906;43.536;26.068;2024-02-16T07:56:41;15.23;;;8.10;;
40198;SDS011;25906;43.536;26.068;2024-02-16T07:59:28;11.88;;;6.18;;
40198;SDS011;25906;43.536;26.068;2024-02-16T08:02:14;12.02;;;6.22;;
40198;SDS011;25906;43.536;26.068;2024-02-16T08:05:00;13.07;;;6.60;;
40198;SDS011;25906;43.536;26.068;2024-02-16T08:07:46;14.80;;;7.00;;
40198;SDS011;25906;43.536;26.068;2024-02-16T08:10:34;12.82;;;6.40;;
40198;SDS011;25906;43.536;26.068;2024-02-16T08:13:21;12.32;;;6.40;;
40198;SDS011;25906;43.536;26.068;2024-02-16T08:16:06;12.90;;;6.65;;
40198;SDS011;25906;43.536;26.068;2024-02-16T08:18:52;10.90;;;6.43;;
40198;SDS011;25906;43.536;26.068;2024-02-16T08:21:37;10.27;;;6.28;;
40198;SDS011;25906;43.536;26.068;2024-02-16T08:24:23;12.63;;;6.50;;
40198;SDS011;25906;43.536;26.068;2024-02-16T08:27:08;12.57;;;6.82;;
40198;SDS011;25906;43.536;26.068;2024-02-16T08:29:54;12.02;;;6.50;;
40198;SDS011;25906;43.536;26.068;2024-02-16T08:32:39;10.88;;;6.57;;
40198;SDS011;25906;43.536;26.068;2024-02-16T08:35:25;14.07;;;7.65;;
40198;SDS011;25906;43.536;26.068;2024-02-16T08:38:10;13.70;;;6.82;;
40198;SDS011;25906;43.536;26.068;2024-02-16T08:40:56;10.57;;;6.18;;
40198;SDS011;25906;43.536;26.068;2024-02-16T08:43:41;9.75;;;5.90;;
40198;SDS011;25906;43.536;26.068;2024-02-16T08:46:27;11.35;;;6.30;;
40198;SDS011;25906;43.536;26.068;2024-02-16T08:49:12;9.25;;;5.43;;
40198;SDS011;25906;43.536;26.068;2024-02-16T08:51:58;10.45;;;5.85;;
40198;SDS011;25906;43.536;26.068;2024-02-16T08:54:43;10.25;;;6.15;;
40198;SDS011;25906;43.536;26.068;2024-02-16T08:57:29;12.18;;;5.68;;
40198;SDS011;25906;43.536;26.068;2024-02-16T09:00:16;10.20;;;6.20;;
40198;SDS011;25906;43.536;26.068;2024-02-16T09:03:02;16.77;;;6.28;;
40198;SDS011;25906;43.536;26.068;2024-02-16T09:05:48;8.68;;;5.53;;
40198;SDS011;25906;43.536;26.068;2024-02-16T09:08:33;14.43;;;6.78;;
40198;SDS011;25906;43.536;26.068;2024-02-16T09:11:20;10.88;;;6.00;;
40198;SDS011;25906;43.536;26.068;2024-02-16T09:14:05;12.13;;;6.28;;
40198;SDS011;25906;43.536;26.068;2024-02-16T09:16:51;10.45;;;5.78;;
40198;SDS011;25906;43.536;26.068;2024-02-16T09:19:36;14.48;;;6.93;;
40198;SDS011;25906;43.536;26.068;2024-02-16T09:22:22;35.70;;;13.95;;
40198;SDS011;25906;43.536;26.068;2024-02-16T09:25:07;12.60;;;6.25;;
40198;SDS011;25906;43.536;26.068;2024-02-16T09:27:53;11.73;;;6.38;;
40198;SDS011;25906;43.536;26.068;2024-02-16T09:30:38;9.88;;;5.57;;
40198;SDS011;25906;43.536;26.068;2024-02-16T09:33:24;9.90;;;5.25;;
40198;SDS011;25906;43.536;26.068;2024-02-16T09:36:11;12.02;;;6.47;;
40198;SDS011;25906;43.536;26.068;2024-02-16T09:38:57;10.75;;;6.50;;
40198;SDS011;25906;43.536;26.068;2024-02-16T09:41:43;11.30;;;7.13;;
40198;SDS011;25906;43.536;26.068;2024-02-16T09:44:29;10.48;;;5.57;;
40198;SDS011;25906;43.536;26.068;2024-02-16T09:47:15;11.15;;;5.60;;
40198;SDS011;25906;43.536;26.068;2024-02-16T09:50:04;11.27;;;5.95;;
40198;SDS011;25906;43.536;26.068;2024-02-16T09:52:50;11.48;;;5.68;;
40198;SDS011;25906;43.536;26.068;2024-02-16T09:55:36;11.50;;;6.60;;
40198;SDS011;25906;43.536;26.068;2024-02-16T09:58:22;10.75;;;6.03;;
40198;SDS011;25906;43.536;26.068;2024-02-16T10:01:07;12.50;;;6.15;;
40198;SDS011;25906;43.536;26.068;2024-02-16T10:06:47;10.10;;;5.70;;
40198;SDS011;25906;43.536;26.068;2024-02-16T10:09:33;12.23;;;6.20;;
40198;SDS011;25906;43.536;26.068;2024-02-16T10:12:19;9.43;;;5.82;;
40198;SDS011;25906;43.536;26.068;2024-02-16T10:15:04;11.55;;;6.90;;
40198;SDS011;25906;43.536;26.068;2024-02-16T10:18:00;12.23;;;6.47;;
40198;SDS011;25906;43.536;26.068;2024-02-16T10:20:46;11.25;;;6.35;;
40198;SDS011;25906;43.536;26.068;2024-02-16T10:23:31;13.02;;;6.43;;
40198;SDS011;25906;43.536;26.068;2024-02-16T10:26:17;9.80;;;5.93;;
40198;SDS011;25906;43.536;26.068;2024-02-16T10:29:03;10.40;;;6.22;;
40198;SDS011;25906;43.536;26.068;2024-02-16T10:31:50;11.57;;;6.28;;
40198;SDS011;25906;43.536;26.068;2024-02-16T10:34:35;9.18;;;6.35;;
40198;SDS011;25906;43.536;26.068;2024-02-16T10:37:24;9.63;;;6.10;;
40198;SDS011;25906;43.536;26.068;2024-02-16T10:43:00;10.25;;;6.63;;
40198;SDS011;25906;43.536;26.068;2024-02-16T10:45:48;11.48;;;6.30;;
40198;SDS011;25906;43.536;26.068;2024-02-16T10:48:37;10.85;;;6.22;;
40198;SDS011;25906;43.536;26.068;2024-02-16T10:51:27;10.48;;;6.43;;
40198;SDS011;25906;43.536;26.068;2024-02-16T10:54:20;11.15;;;6.75;;
40198;SDS011;25906;43.536;26.068;2024-02-16T10:57:10;11.82;;;7.05;;
40198;SDS011;25906;43.536;26.068;2024-02-16T10:59:55;14.70;;;7.40;;
40198;SDS011;25906;43.536;26.068;2024-02-16T11:05:41;13.60;;;7.80;;
40198;SDS011;25906;43.536;26.068;2024-02-16T11:08:37;15.45;;;8.60;;
40198;SDS011;25906;43.536;26.068;2024-02-16T11:11:23;11.20;;;7.20;;
40198;SDS011;25906;43.536;26.068;2024-02-16T11:17:01;9.82;;;5.25;;
40198;SDS011;25906;43.536;26.068;2024-02-16T11:19:48;10.82;;;6.45;;
40198;SDS011;25906;43.536;26.068;2024-02-16T11:22:36;14.55;;;8.18;;
40198;SDS011;25906;43.536;26.068;2024-02-16T11:25:31;15.32;;;9.02;;
40198;SDS011;25906;43.536;26.068;2024-02-16T11:28:17;13.15;;;7.15;;
40198;SDS011;25906;43.536;26.068;2024-02-16T11:31:03;10.15;;;6.85;;
40198;SDS011;25906;43.536;26.068;2024-02-16T11:33:49;13.55;;;6.40;;
40198;SDS011;25906;43.536;26.068;2024-02-16T11:36:35;14.10;;;6.43;;
40198;SDS011;25906;43.536;26.068;2024-02-16T11:39:21;9.55;;;5.97;;
40198;SDS011;25906;43.536;26.068;2024-02-16T11:42:08;9.27;;;5.90;;
40198;SDS011;25906;43.536;26.068;2024-02-16T11:44:57;10.55;;;6.32;;
40198;SDS011;25906;43.536;26.068;2024-02-16T11:47:42;10.90;;;6.47;;
40198;SDS011;25906;43.536;26.068;2024-02-16T11:50:28;10.20;;;6.18;;
40198;SDS011;25906;43.536;26.068;2024-02-16T11:53:17;11.40;;;6.03;;
40198;SDS011;25906;43.536;26.068;2024-02-16T11:56:06;10.38;;;6.00;;
40198;SDS011;25906;43.536;26.068;2024-02-16T11:58:52;10.25;;;6.03;;
40198;SDS011;25906;43.536;26.068;2024-02-16T12:01:47;11.82;;;6.82;;
40198;SDS011;25906;43.536;26.068;2024-02-16T12:04:34;9.50;;;6.72;;
40198;SDS011;25906;43.536;26.068;2024-02-16T12:07:19;8.95;;;5.70;;
40198;SDS011;25906;43.536;26.068;2024-02-16T12:10:05;10.18;;;6.32;;
40198;SDS011;25906;43.536;26.068;2024-02-16T12:12:51;13.23;;;6.80;;
40198;SDS011;25906;43.536;26.068;2024-02-16T12:15:40;9.88;;;6.22;;
40198;SDS011;25906;43.536;26.068;2024-02-16T12:18:26;9.90;;;5.90;;
40198;SDS011;25906;43.536;26.068;2024-02-16T12:21:12;11.27;;;6.63;;
40198;SDS011;25906;43.536;26.068;2024-02-16T12:24:04;13.20;;;6.78;;
40198;SDS011;25906;43.536;26.068;2024-02-16T12:26:50;9.73;;;6.30;;
40198;SDS011;25906;43.536;26.068;2024-02-16T12:29:36;33.72;;;16.60;;
40198;SDS011;25906;43.536;26.068;2024-02-16T12:32:21;12.98;;;7.03;;
40198;SDS011;25906;43.536;26.068;2024-02-16T12:35:07;12.05;;;6.97;;
40198;SDS011;25906;43.536;26.068;2024-02-16T12:37:53;12.32;;;7.20;;
40198;SDS011;25906;43.536;26.068;2024-02-16T12:40:38;12.52;;;7.55;;
40198;SDS011;25906;43.536;26.068;2024-02-16T12:43:24;12.38;;;7.30;;
40198;SDS011;25906;43.536;26.068;2024-02-16T12:46:09;10.93;;;6.78;;
40198;SDS011;25906;43.536;26.068;2024-02-16T12:48:55;9.82;;;6.20;;
40198;SDS011;25906;43.536;26.068;2024-02-16T12:51:40;12.98;;;6.15;;
40198;SDS011;25906;43.536;26.068;2024-02-16T12:54:26;9.07;;;6.05;;
40198;SDS011;25906;43.536;26.068;2024-02-16T12:57:12;11.20;;;6.68;;
40198;SDS011;25906;43.536;26.068;2024-02-16T12:59:58;10.93;;;6.45;;
40198;SDS011;25906;43.536;26.068;2024-02-16T13:02:44;12.88;;;7.05;;
40198;SDS011;25906;43.536;26.068;2024-02-16T13:05:29;13.85;;;8.32;;
40198;SDS011;25906;43.536;26.068;2024-02-16T13:08:16;12.50;;;7.07;;
40198;SDS011;25906;43.536;26.068;2024-02-16T13:11:02;12.77;;;6.88;;
40198;SDS011;25906;43.536;26.068;2024-02-16T13:13:48;10.63;;;6.55;;
40198;SDS011;25906;43.536;26.068;2024-02-16T13:16:33;11.68;;;6.85;;
40198;SDS011;25906;43.536;26.068;2024-02-16T13:19:19;15.02;;;8.25;;
40198;SDS011;25906;43.536;26.068;2024-02-16T13:22:04;15.23;;;7.05;;
40198;SDS011;25906;43.536;26.068;2024-02-16T13:24:50;12.88;;;7.18;;
40198;SDS011;25906;43.536;26.068;2024-02-16T13:27:36;11.55;;;7.03;;
40198;SDS011;25906;43.536;26.068;2024-02-16T13:30:21;13.80;;;7.80;;
40198;SDS011;25906;43.536;26.068;2024-02-16T13:33:07;13.80;;;7.07;;
40198;SDS011;25906;43.536;26.068;2024-02-16T13:35:54;14.63;;;7.72;;
40198;SDS011;25906;43.536;26.068;2024-02-16T13:38:40;14.30;;;8.02;;
40198;SDS011;25906;43.536;26.068;2024-02-16T13:41:25;15.40;;;7.63;;
40198;SDS011;25906;43.536;26.068;2024-02-16T13:44:11;13.25;;;7.90;;
40198;SDS011;25906;43.536;26.068;2024-02-16T13:46:56;14.43;;;7.93;;
40198;SDS011;25906;43.536;26.068;2024-02-16T13:49:42;11.65;;;7.18;;
40198;SDS011;25906;43.536;26.068;2024-02-16T13:52:27;10.90;;;6.68;;
40198;SDS011;25906;43.536;26.068;2024-02-16T13:55:14;14.18;;;8.07;;
40198;SDS011;25906;43.536;26.068;2024-02-16T13:57:59;13.85;;;8.35;;
40198;SDS011;25906;43.536;26.068;2024-02-16T14:00:45;14.48;;;7.90;;
40198;SDS011;25906;43.536;26.068;2024-02-16T14:03:30;13.23;;;7.88;;
40198;SDS011;25906;43.536;26.068;2024-02-16T14:06:17;11.18;;;6.95;;
40198;SDS011;25906;43.536;26.068;2024-02-16T14:09:02;13.35;;;8.13;;
40198;SDS011;25906;43.536;26.068;2024-02-16T14:11:53;13.18;;;8.10;;
40198;SDS011;25906;43.536;26.068;2024-02-16T14:14:41;14.20;;;8.13;;
40198;SDS011;25906;43.536;26.068;2024-02-16T14:17:26;14.00;;;8.00;;
40198;SDS011;25906;43.536;26.068;2024-02-16T14:20:11;14.38;;;7.93;;
40198;SDS011;25906;43.536;26.068;2024-02-16T14:22:57;15.52;;;8.52;;
40198;SDS011;25906;43.536;26.068;2024-02-16T14:25:42;13.45;;;8.43;;
40198;SDS011;25906;43.536;26.068;2024-02-16T14:28:28;12.85;;;8.55;;
40198;SDS011;25906;43.536;26.068;2024-02-16T14:31:13;15.32;;;8.43;;
40198;SDS011;25906;43.536;26.068;2024-02-16T14:34:01;16.60;;;8.15;;
40198;SDS011;25906;43.536;26.068;2024-02-16T14:36:47;15.88;;;9.60;;
40198;SDS011;25906;43.536;26.068;2024-02-16T14:39:32;14.82;;;8.48;;
40198;SDS011;25906;43.536;26.068;2024-02-16T14:42:18;18.42;;;8.40;;
40198;SDS011;25906;43.536;26.068;2024-02-16T14:45:03;14.25;;;8.02;;
40198;SDS011;25906;43.536;26.068;2024-02-16T14:47:50;16.42;;;8.38;;
40198;SDS011;25906;43.536;26.068;2024-02-16T14:50:36;16.52;;;8.73;;
40198;SDS011;25906;43.536;26.068;2024-02-16T14:53:21;14.80;;;7.95;;
40198;SDS011;25906;43.536;26.068;2024-02-16T14:56:07;15.02;;;8.63;;
40198;SDS011;25906;43.536;26.068;2024-02-16T15:01:38;13.13;;;7.80;;
40198;SDS011;25906;43.536;26.068;2024-02-16T15:04:23;14.60;;;8.30;;
40198;SDS011;25906;43.536;26.068;2024-02-16T15:07:09;17.20;;;8.68;;
40198;SDS011;25906;43.536;26.068;2024-02-16T15:12:40;15.10;;;8.02;;
40198;SDS011;25906;43.536;26.068;2024-02-16T15:15:27;14.98;;;8.43;;
40198;SDS011;25906;43.536;26.068;2024-02-16T15:18:13;14.52;;;8.40;;
40198;SDS011;25906;43.536;26.068;2024-02-16T15:20:58;14.98;;;7.90;;
40198;SDS011;25906;43.536;26.068;2024-02-16T15:23:45;13.90;;;8.30;;
40198;SDS011;25906;43.536;26.068;2024-02-16T15:26:30;19.98;;;8.90;;
40198;SDS011;25906;43.536;26.068;2024-02-16T15:29:16;16.88;;;8.15;;
40198;SDS011;25906;43.536;26.068;2024-02-16T15:32:02;14.30;;;8.52;;
40198;SDS011;25906;43.536;26.068;2024-02-16T15:37:38;19.30;;;7.95;;
40198;SDS011;25906;43.536;26.068;2024-02-16T15:40:23;17.27;;;9.25;;
40198;SDS011;25906;43.536;26.068;2024-02-16T15:43:09;17.60;;;8.90;;
40198;SDS011;25906;43.536;26.068;2024-02-16T15:45:56;18.77;;;9.10;;
40198;SDS011;25906;43.536;26.068;2024-02-16T15:48:42;15.32;;;9.05;;
40198;SDS011;25906;43.536;26.068;2024-02-16T15:51:28;16.83;;;9.40;;
40198;SDS011;25906;43.536;26.068;2024-02-16T15:56:59;16.77;;;8.48;;
40198;SDS011;25906;43.536;26.068;2024-02-16T15:59:45;16.10;;;9.00;;
40198;SDS011;25906;43.536;26.068;2024-02-16T16:02:32;16.67;;;8.82;;
40198;SDS011;25906;43.536;26.068;2024-02-16T16:08:03;21.77;;;10.30;;
40198;SDS011;25906;43.536;26.068;2024-02-16T16:10:49;16.95;;;9.10;;
40198;SDS011;25906;43.536;26.068;2024-02-16T16:13:34;17.50;;;9.50;;
40198;SDS011;25906;43.536;26.068;2024-02-16T16:16:20;18.17;;;9.35;;
40198;SDS011;25906;43.536;26.068;2024-02-16T16:19:06;15.98;;;8.90;;
40198;SDS011;25906;43.536;26.068;2024-02-16T16:21:52;15.02;;;8.73;;
40198;SDS011;25906;43.536;26.068;2024-02-16T16:24:38;18.95;;;9.20;;
40198;SDS011;25906;43.536;26.068;2024-02-16T16:27:25;23.15;;;9.52;;
40198;SDS011;25906;43.536;26.068;2024-02-16T16:30:11;16.40;;;8.60;;
40198;SDS011;25906;43.536;26.068;2024-02-16T16:32:56;20.10;;;9.30;;
40198;SDS011;25906;43.536;26.068;2024-02-16T16:35:42;22.20;;;10.75;;
40198;SDS011;25906;43.536;26.068;2024-02-16T16:38:27;25.25;;;11.35;;
40198;SDS011;25906;43.536;26.068;2024-02-16T16:41:13;20.38;;;10.60;;
40198;SDS011;25906;43.536;26.068;2024-02-16T16:43:58;21.45;;;11.55;;
40198;SDS011;25906;43.536;26.068;2024-02-16T16:46:44;20.98;;;10.52;;
40198;SDS011;25906;43.536;26.068;2024-02-16T16:52:15;25.90;;;11.50;;
40198;SDS011;25906;43.536;26.068;2024-02-16T16:55:01;21.83;;;11.32;;
40198;SDS011;25906;43.536;26.068;2024-02-16T16:57:46;24.38;;;9.73;;